Flight Track Log - Related Links

Times and Time Zones

All times are in EDT time to prevent confusion due to time zone crossing. See the MAL8056 flight status page for this flight to view local times or setup timezone preferences in your user account.

Time Position Orientation Groundspeed Altitude Reporting Facility
EDT Latitude Longitude Course Direction KTS MPH feet Rate Location/Type
Mon 02:46:49 PM 46.6000 -80.8167 349° North 90 104 2,400  Level Toronto Center
Mon 02:47:49 PM 46.6333 -80.8167 360° North 110 127 3,300 950 Climbing Toronto Center
Mon 02:48:49 PM 46.6667 -80.8167 360° North 130 150 4,300 1,000 Climbing Toronto Center
Mon 02:49:49 PM 46.7000 -80.8000 19° North 130 150 5,300 950 Climbing Toronto Center
Mon 02:50:49 PM 46.7500 -80.8167 347° North 130 150 6,200 950 Climbing Toronto Center
Mon 02:51:49 PM 46.7833 -80.8167 360° North 130 150 7,200 900 Climbing Toronto Center
Mon 02:52:00 PM 46.8814 -80.8726 349° North  Level Estimated
Mon 02:52:49 PM 46.8167 -80.8500 326° Northwest 130 150 8,000  Level Toronto Center
Mon 02:53:49 PM 46.8667 -80.8500 360° North 160 184 8,000  Level Toronto Center
Mon 02:54:49 PM 46.9000 -80.8500 360° North 170 196 8,000  Level Toronto Center
Mon 02:55:49 PM 46.9500 -80.8833 336° Northwest 170 196 8,000  Level Toronto Center
Mon 02:56:49 PM 47.0000 -80.8833 360° North 170 196 8,000  Level Toronto Center
Mon 02:57:49 PM 47.0500 -80.9000 347° North 170 196 8,000  Level Toronto Center
Mon 02:58:49 PM 47.1000 -80.9000 360° North 170 196 8,000  Level Toronto Center
Mon 02:59:49 PM 47.1167 -80.9333 306° West 170 196 8,000  Level Toronto Center
Mon 03:00:49 PM 47.1667 -80.9333 360° North 170 196 8,000  Level Toronto Center
Mon 03:01:49 PM 47.2167 -80.9500 347° North 170 196 8,000  Level Toronto Center
Mon 03:02:49 PM 47.2667 -80.9833 336° Northwest 170 196 8,000  Level Toronto Center
Mon 03:03:49 PM 47.3167 -80.9833 360° North 170 196 8,000  Level Toronto Center
Mon 03:04:49 PM 47.3667 -81.0167 336° Northwest 170 196 8,000  Level Toronto Center
Mon 03:05:49 PM 47.4000 -81.0167 360° North 170 196 8,000  Level Toronto Center
Mon 03:06:49 PM 47.4500 -81.0333 347° North 170 196 8,000  Level Toronto Center
Mon 03:07:49 PM 47.5000 -81.0333 360° North 170 196 8,000  Level Toronto Center
Mon 03:08:49 PM 47.5500 -81.0667 336° Northwest 170 196 8,000  Level Toronto Center
Mon 03:09:49 PM 47.6000 -81.0667 360° North 170 196 8,000  Level Toronto Center
Mon 03:10:49 PM 47.6333 -81.0833 341° North 170 196 8,000  Level Toronto Center
Mon 03:11:49 PM 47.6833 -81.1000 347° North 170 196 8,000  Level Toronto Center
Mon 03:12:49 PM 47.7333 -81.1167 347° North 170 196 8,000  Level Toronto Center
Mon 03:16:00 PM 47.7841 -81.1320 349° North  Level FlightAware Approximate
Mon 03:23:00 PM 48.0843 -81.2234 349° North  Level FlightAware Approximate
Mon 03:24:00 PM 48.1271 -81.2368 347° North  Level FlightAware Approximate
Mon 03:25:00 PM 48.1699 -81.2511 347° North  Level FlightAware Approximate
Mon 03:26:00 PM 48.2126 -81.2653 347° North  Level FlightAware Approximate
Mon 03:27:00 PM 48.2559 -81.2745 352° North  Level FlightAware Approximate
Mon 03:28:00 PM 48.2993 -81.2832 352° North  Level FlightAware Approximate
Mon 03:29:00 PM 48.3427 -81.2919 352° North  Level FlightAware Approximate
Mon 03:30:00 PM 48.3860 -81.3011 345° North  Level FlightAware Approximate
Mon 03:31:00 PM 48.4283 -81.3180 345° North  Level FlightAware Approximate
Mon 03:32:00 PM 48.4707 -81.3341 352° North  Level FlightAware Approximate
Mon 03:33:00 PM 48.5141 -81.3428 352° North  Level FlightAware Approximate
Mon 03:34:00 PM 48.5563 -81.3563 327° Northwest  Level FlightAware Approximate
Mon 03:35:00 PM 48.5667 -81.3667 North  Level FlightAware Approximate
Mon 03:36:00 PM 48.5697 -81.3767 North  Level Estimated
Mon 03:37:00 PM 48.5697 -81.3767 North  Level Estimated

Login

Don't have an account? Register now (free) for customized features, flight alerts, and more!